sensor_id;sensor_type;location;lat;lon;timestamp;pressure;altitude;pressure_sealevel;temperature
73937;BMP180;59249;59.736;30.568;2024-02-16T00:01:45;102248.00;;;-3.30
73937;BMP180;59249;59.736;30.568;2024-02-16T00:04:16;102256.00;;;-3.20
73937;BMP180;59249;59.736;30.568;2024-02-16T00:06:45;102250.00;;;-3.10
73937;BMP180;59249;59.736;30.568;2024-02-16T00:09:15;102252.00;;;-3.20
73937;BMP180;59249;59.736;30.568;2024-02-16T00:11:44;102245.00;;;-3.20
73937;BMP180;59249;59.736;30.568;2024-02-16T00:14:14;102240.00;;;-3.20
73937;BMP180;59249;59.736;30.568;2024-02-16T00:16:43;102246.00;;;-3.20
73937;BMP180;59249;59.736;30.568;2024-02-16T00:19:13;102236.00;;;-3.20
73937;BMP180;59249;59.736;30.568;2024-02-16T00:21:43;102234.00;;;-3.20
73937;BMP180;59249;59.736;30.568;2024-02-16T00:24:12;102245.00;;;-3.30
73937;BMP180;59249;59.736;30.568;2024-02-16T00:26:41;102240.00;;;-3.20
73937;BMP180;59249;59.736;30.568;2024-02-16T00:29:13;102234.00;;;-3.30
73937;BMP180;59249;59.736;30.568;2024-02-16T00:31:42;102237.00;;;-3.20
73937;BMP180;59249;59.736;30.568;2024-02-16T00:34:15;102241.00;;;-3.20
73937;BMP180;59249;59.736;30.568;2024-02-16T00:36:48;102242.00;;;-3.20
73937;BMP180;59249;59.736;30.568;2024-02-16T00:39:19;102223.00;;;-3.10
73937;BMP180;59249;59.736;30.568;2024-02-16T00:42:08;102238.00;;;-3.10
73937;BMP180;59249;59.736;30.568;2024-02-16T00:44:38;102240.00;;;-3.10
73937;BMP180;59249;59.736;30.568;2024-02-16T00:47:14;102236.00;;;-3.10
73937;BMP180;59249;59.736;30.568;2024-02-16T00:49:43;102244.00;;;-3.10
73937;BMP180;59249;59.736;30.568;2024-02-16T00:52:14;102236.00;;;-3.10
73937;BMP180;59249;59.736;30.568;2024-02-16T00:54:44;102241.00;;;-2.90
73937;BMP180;59249;59.736;30.568;2024-02-16T00:57:15;102237.00;;;-3.00
73937;BMP180;59249;59.736;30.568;2024-02-16T00:59:46;102241.00;;;-2.90
73937;BMP180;59249;59.736;30.568;2024-02-16T01:02:16;102238.00;;;-3.00
73937;BMP180;59249;59.736;30.568;2024-02-16T01:05:02;102232.00;;;-2.90
73937;BMP180;59249;59.736;30.568;2024-02-16T01:07:39;102234.00;;;-2.80
73937;BMP180;59249;59.736;30.568;2024-02-16T01:10:13;102234.00;;;-2.80
73937;BMP180;59249;59.736;30.568;2024-02-16T01:12:47;102239.00;;;-2.90
73937;BMP180;59249;59.736;30.568;2024-02-16T01:15:22;102236.00;;;-2.80
73937;BMP180;59249;59.736;30.568;2024-02-16T01:18:08;102237.00;;;-2.70
73937;BMP180;59249;59.736;30.568;2024-02-16T01:20:39;102229.00;;;-2.70
73937;BMP180;59249;59.736;30.568;2024-02-16T01:23:11;102233.00;;;-2.70
73937;BMP180;59249;59.736;30.568;2024-02-16T01:25:41;102227.00;;;-2.70
73937;BMP180;59249;59.736;30.568;2024-02-16T01:28:17;102239.00;;;-2.70
73937;BMP180;59249;59.736;30.568;2024-02-16T01:30:47;102234.00;;;-2.70
73937;BMP180;59249;59.736;30.568;2024-02-16T01:33:18;102236.00;;;-2.70
73937;BMP180;59249;59.736;30.568;2024-02-16T01:35:49;102226.00;;;-2.60
73937;BMP180;59249;59.736;30.568;2024-02-16T01:38:20;102235.00;;;-2.70
73937;BMP180;59249;59.736;30.568;2024-02-16T01:40:50;102222.00;;;-2.60
73937;BMP180;59249;59.736;30.568;2024-02-16T01:43:19;102220.00;;;-2.70
73937;BMP180;59249;59.736;30.568;2024-02-16T01:45:49;102224.00;;;-2.70
73937;BMP180;59249;59.736;30.568;2024-02-16T01:48:18;102219.00;;;-2.60
73937;BMP180;59249;59.736;30.568;2024-02-16T01:50:48;102217.00;;;-2.70
73937;BMP180;59249;59.736;30.568;2024-02-16T01:53:19;102216.00;;;-2.70
73937;BMP180;59249;59.736;30.568;2024-02-16T01:55:50;102219.00;;;-2.70
73937;BMP180;59249;59.736;30.568;2024-02-16T01:58:19;102227.00;;;-2.70
73937;BMP180;59249;59.736;30.568;2024-02-16T02:00:49;102217.00;;;-2.70
73937;BMP180;59249;59.736;30.568;2024-02-16T02:03:20;102219.00;;;-2.70
73937;BMP180;59249;59.736;30.568;2024-02-16T02:05:51;102227.00;;;-2.60
73937;BMP180;59249;59.736;30.568;2024-02-16T02:08:25;102224.00;;;-2.50
73937;BMP180;59249;59.736;30.568;2024-02-16T02:10:55;102218.00;;;-2.60
73937;BMP180;59249;59.736;30.568;2024-02-16T02:13:26;102227.00;;;-2.70
73937;BMP180;59249;59.736;30.568;2024-02-16T02:15:56;102221.00;;;-2.70
73937;BMP180;59249;59.736;30.568;2024-02-16T02:18:26;102224.00;;;-2.80
73937;BMP180;59249;59.736;30.568;2024-02-16T02:20:57;102234.00;;;-2.70
73937;BMP180;59249;59.736;30.568;2024-02-16T02:23:27;102232.00;;;-2.60
73937;BMP180;59249;59.736;30.568;2024-02-16T02:25:57;102231.00;;;-2.70
73937;BMP180;59249;59.736;30.568;2024-02-16T02:28:26;102234.00;;;-2.70
73937;BMP180;59249;59.736;30.568;2024-02-16T02:30:59;102233.00;;;-2.70
73937;BMP180;59249;59.736;30.568;2024-02-16T02:33:28;102234.00;;;-2.70
73937;BMP180;59249;59.736;30.568;2024-02-16T02:35:59;102239.00;;;-2.70
73937;BMP180;59249;59.736;30.568;2024-02-16T02:38:29;102240.00;;;-2.60
73937;BMP180;59249;59.736;30.568;2024-02-16T02:40:59;102244.00;;;-2.60
73937;BMP180;59249;59.736;30.568;2024-02-16T02:43:33;102234.00;;;-2.50
73937;BMP180;59249;59.736;30.568;2024-02-16T02:46:02;102244.00;;;-2.60
73937;BMP180;59249;59.736;30.568;2024-02-16T02:48:31;102248.00;;;-2.60
73937;BMP180;59249;59.736;30.568;2024-02-16T02:51:00;102246.00;;;-2.60
73937;BMP180;59249;59.736;30.568;2024-02-16T02:53:32;102247.00;;;-2.60
73937;BMP180;59249;59.736;30.568;2024-02-16T02:56:01;102248.00;;;-2.50
73937;BMP180;59249;59.736;30.568;2024-02-16T02:58:30;102243.00;;;-2.50
73937;BMP180;59249;59.736;30.568;2024-02-16T03:00:59;102249.00;;;-2.60
73937;BMP180;59249;59.736;30.568;2024-02-16T03:03:28;102259.00;;;-2.50
73937;BMP180;59249;59.736;30.568;2024-02-16T03:05:57;102249.00;;;-2.40
73937;BMP180;59249;59.736;30.568;2024-02-16T03:08:27;102250.00;;;-2.50
73937;BMP180;59249;59.736;30.568;2024-02-16T03:10:57;102258.00;;;-2.40
73937;BMP180;59249;59.736;30.568;2024-02-16T03:13:28;102255.00;;;-2.40
73937;BMP180;59249;59.736;30.568;2024-02-16T03:15:57;102259.00;;;-2.40
73937;BMP180;59249;59.736;30.568;2024-02-16T03:18:29;102252.00;;;-2.50
73937;BMP180;59249;59.736;30.568;2024-02-16T03:20:59;102260.00;;;-2.50
73937;BMP180;59249;59.736;30.568;2024-02-16T03:23:29;102262.00;;;-2.40
73937;BMP180;59249;59.736;30.568;2024-02-16T03:26:00;102260.00;;;-2.40
73937;BMP180;59249;59.736;30.568;2024-02-16T03:28:29;102272.00;;;-2.50
73937;BMP180;59249;59.736;30.568;2024-02-16T03:30:58;102276.00;;;-2.40
73937;BMP180;59249;59.736;30.568;2024-02-16T03:33:27;102271.00;;;-2.40
73937;BMP180;59249;59.736;30.568;2024-02-16T03:35:56;102263.00;;;-2.40
73937;BMP180;59249;59.736;30.568;2024-02-16T03:38:27;102266.00;;;-2.40
73937;BMP180;59249;59.736;30.568;2024-02-16T03:40:55;102263.00;;;-2.40
73937;BMP180;59249;59.736;30.568;2024-02-16T03:43:26;102260.00;;;-2.40
73937;BMP180;59249;59.736;30.568;2024-02-16T03:45:56;102254.00;;;-2.40
73937;BMP180;59249;59.736;30.568;2024-02-16T03:48:25;102253.00;;;-2.50
73937;BMP180;59249;59.736;30.568;2024-02-16T03:50:57;102251.00;;;-2.50
73937;BMP180;59249;59.736;30.568;2024-02-16T03:53:27;102245.00;;;-2.50
73937;BMP180;59249;59.736;30.568;2024-02-16T03:56:20;102232.00;;;-2.50
73937;BMP180;59249;59.736;30.568;2024-02-16T03:58:51;102242.00;;;-2.50
73937;BMP180;59249;59.736;30.568;2024-02-16T04:01:37;102248.00;;;-2.50
73937;BMP180;59249;59.736;30.568;2024-02-16T04:04:09;102242.00;;;-2.40
73937;BMP180;59249;59.736;30.568;2024-02-16T04:06:38;102238.00;;;-2.40
73937;BMP180;59249;59.736;30.568;2024-02-16T04:09:09;102248.00;;;-2.40
73937;BMP180;59249;59.736;30.568;2024-02-16T04:11:39;102246.00;;;-2.40
73937;BMP180;59249;59.736;30.568;2024-02-16T04:14:10;102245.00;;;-2.40
73937;BMP180;59249;59.736;30.568;2024-02-16T04:16:43;102251.00;;;-2.30
73937;BMP180;59249;59.736;30.568;2024-02-16T04:19:18;102252.00;;;-2.50
73937;BMP180;59249;59.736;30.568;2024-02-16T04:21:47;102262.00;;;-2.40
73937;BMP180;59249;59.736;30.568;2024-02-16T04:24:18;102266.00;;;-2.30
73937;BMP180;59249;59.736;30.568;2024-02-16T04:26:49;102253.00;;;-2.30
73937;BMP180;59249;59.736;30.568;2024-02-16T04:29:20;102252.00;;;-2.30
73937;BMP180;59249;59.736;30.568;2024-02-16T04:31:53;102233.00;;;-2.30
73937;BMP180;59249;59.736;30.568;2024-02-16T04:34:26;102239.00;;;-2.30
73937;BMP180;59249;59.736;30.568;2024-02-16T04:36:57;102253.00;;;-2.30
73937;BMP180;59249;59.736;30.568;2024-02-16T04:39:27;102250.00;;;-2.20
73937;BMP180;59249;59.736;30.568;2024-02-16T04:41:58;102252.00;;;-2.30
73937;BMP180;59249;59.736;30.568;2024-02-16T04:44:30;102252.00;;;-2.20
73937;BMP180;59249;59.736;30.568;2024-02-16T04:47:02;102240.00;;;-2.20
73937;BMP180;59249;59.736;30.568;2024-02-16T04:49:33;102252.00;;;-2.30
73937;BMP180;59249;59.736;30.568;2024-02-16T04:52:04;102245.00;;;-2.20
73937;BMP180;59249;59.736;30.568;2024-02-16T04:54:36;102241.00;;;-2.20
73937;BMP180;59249;59.736;30.568;2024-02-16T04:57:07;102244.00;;;-2.20
73937;BMP180;59249;59.736;30.568;2024-02-16T04:59:39;102239.00;;;-2.30
73937;BMP180;59249;59.736;30.568;2024-02-16T05:02:10;102245.00;;;-2.20
73937;BMP180;59249;59.736;30.568;2024-02-16T05:04:41;102235.00;;;-2.20
73937;BMP180;59249;59.736;30.568;2024-02-16T05:07:11;102243.00;;;-2.30
73937;BMP180;59249;59.736;30.568;2024-02-16T05:09:40;102248.00;;;-2.20
73937;BMP180;59249;59.736;30.568;2024-02-16T05:12:10;102245.00;;;-2.20
73937;BMP180;59249;59.736;30.568;2024-02-16T05:14:40;102247.00;;;-2.20
73937;BMP180;59249;59.736;30.568;2024-02-16T05:17:10;102249.00;;;-2.20
73937;BMP180;59249;59.736;30.568;2024-02-16T05:19:39;102260.00;;;-2.20
73937;BMP180;59249;59.736;30.568;2024-02-16T05:22:08;102250.00;;;-2.20
73937;BMP180;59249;59.736;30.568;2024-02-16T05:24:37;102250.00;;;-2.20
73937;BMP180;59249;59.736;30.568;2024-02-16T05:27:07;102245.00;;;-2.20
73937;BMP180;59249;59.736;30.568;2024-02-16T05:29:38;102247.00;;;-2.10
73937;BMP180;59249;59.736;30.568;2024-02-16T05:32:08;102249.00;;;-2.10
73937;BMP180;59249;59.736;30.568;2024-02-16T05:34:38;102254.00;;;-2.10
73937;BMP180;59249;59.736;30.568;2024-02-16T05:37:07;102266.00;;;-2.10
73937;BMP180;59249;59.736;30.568;2024-02-16T05:39:37;102262.00;;;-2.10
73937;BMP180;59249;59.736;30.568;2024-02-16T05:42:21;102261.00;;;-2.00
73937;BMP180;59249;59.736;30.568;2024-02-16T05:44:50;102259.00;;;-2.10
73937;BMP180;59249;59.736;30.568;2024-02-16T05:47:21;102269.00;;;-2.10
73937;BMP180;59249;59.736;30.568;2024-02-16T05:49:53;102277.00;;;-2.10
73937;BMP180;59249;59.736;30.568;2024-02-16T05:52:23;102280.00;;;-2.10
73937;BMP180;59249;59.736;30.568;2024-02-16T05:54:52;102272.00;;;-2.10
73937;BMP180;59249;59.736;30.568;2024-02-16T05:57:21;102272.00;;;-2.10
73937;BMP180;59249;59.736;30.568;2024-02-16T05:59:51;102276.00;;;-2.00
73937;BMP180;59249;59.736;30.568;2024-02-16T06:02:24;102276.00;;;-2.20
73937;BMP180;59249;59.736;30.568;2024-02-16T06:04:54;102276.00;;;-2.10
73937;BMP180;59249;59.736;30.568;2024-02-16T06:07:23;102284.00;;;-2.20
73937;BMP180;59249;59.736;30.568;2024-02-16T06:09:54;102286.00;;;-2.20
73937;BMP180;59249;59.736;30.568;2024-02-16T06:12:23;102290.00;;;-2.20
73937;BMP180;59249;59.736;30.568;2024-02-16T06:14:53;102283.00;;;-2.30
73937;BMP180;59249;59.736;30.568;2024-02-16T06:17:25;102291.00;;;-2.20
73937;BMP180;59249;59.736;30.568;2024-02-16T06:19:54;102285.00;;;-2.20
73937;BMP180;59249;59.736;30.568;2024-02-16T06:22:24;102291.00;;;-2.30
73937;BMP180;59249;59.736;30.568;2024-02-16T06:24:58;102281.00;;;-2.20
73937;BMP180;59249;59.736;30.568;2024-02-16T06:27:30;102281.00;;;-2.20
73937;BMP180;59249;59.736;30.568;2024-02-16T06:30:00;102276.00;;;-2.20
73937;BMP180;59249;59.736;30.568;2024-02-16T06:32:32;102276.00;;;-2.10
73937;BMP180;59249;59.736;30.568;2024-02-16T06:35:02;102280.00;;;-2.10
73937;BMP180;59249;59.736;30.568;2024-02-16T06:37:31;102272.00;;;-2.10
73937;BMP180;59249;59.736;30.568;2024-02-16T06:40:00;102283.00;;;-2.10
73937;BMP180;59249;59.736;30.568;2024-02-16T06:42:32;102288.00;;;-2.20
73937;BMP180;59249;59.736;30.568;2024-02-16T06:45:04;102280.00;;;-2.10
73937;BMP180;59249;59.736;30.568;2024-02-16T06:47:36;102285.00;;;-2.20
73937;BMP180;59249;59.736;30.568;2024-02-16T06:50:06;102280.00;;;-2.20
73937;BMP180;59249;59.736;30.568;2024-02-16T06:52:36;102275.00;;;-2.20
73937;BMP180;59249;59.736;30.568;2024-02-16T06:55:07;102272.00;;;-2.00
73937;BMP180;59249;59.736;30.568;2024-02-16T06:57:37;102269.00;;;-2.00
73937;BMP180;59249;59.736;30.568;2024-02-16T07:00:07;102278.00;;;-1.90
73937;BMP180;59249;59.736;30.568;2024-02-16T07:02:38;102265.00;;;-2.00
73937;BMP180;59249;59.736;30.568;2024-02-16T07:05:09;102273.00;;;-2.00
73937;BMP180;59249;59.736;30.568;2024-02-16T07:07:40;102263.00;;;-1.90
73937;BMP180;59249;59.736;30.568;2024-02-16T07:10:09;102264.00;;;-1.90
73937;BMP180;59249;59.736;30.568;2024-02-16T07:12:41;102260.00;;;-1.90
73937;BMP180;59249;59.736;30.568;2024-02-16T07:15:13;102260.00;;;-1.90
73937;BMP180;59249;59.736;30.568;2024-02-16T07:17:43;102265.00;;;-1.90
73937;BMP180;59249;59.736;30.568;2024-02-16T07:20:12;102253.00;;;-2.00
73937;BMP180;59249;59.736;30.568;2024-02-16T07:22:43;102261.00;;;-2.10
73937;BMP180;59249;59.736;30.568;2024-02-16T07:25:13;102261.00;;;-2.10
73937;BMP180;59249;59.736;30.568;2024-02-16T07:27:45;102261.00;;;-2.10
73937;BMP180;59249;59.736;30.568;2024-02-16T07:30:14;102261.00;;;-2.00
73937;BMP180;59249;59.736;30.568;2024-02-16T07:32:54;102263.00;;;-2.00
73937;BMP180;59249;59.736;30.568;2024-02-16T07:35:24;102261.00;;;-1.90
73937;BMP180;59249;59.736;30.568;2024-02-16T07:37:53;102262.00;;;-1.80
73937;BMP180;59249;59.736;30.568;2024-02-16T07:40:24;102272.00;;;-1.70
73937;BMP180;59249;59.736;30.568;2024-02-16T07:42:53;102269.00;;;-1.70
73937;BMP180;59249;59.736;30.568;2024-02-16T07:45:25;102271.00;;;-1.50
73937;BMP180;59249;59.736;30.568;2024-02-16T07:47:58;102273.00;;;-1.50
73937;BMP180;59249;59.736;30.568;2024-02-16T07:50:32;102276.00;;;-1.30
73937;BMP180;59249;59.736;30.568;2024-02-16T07:53:02;102260.00;;;-1.40
73937;BMP180;59249;59.736;30.568;2024-02-16T07:55:36;102263.00;;;-1.40
73937;BMP180;59249;59.736;30.568;2024-02-16T07:58:12;102246.00;;;-1.50
73937;BMP180;59249;59.736;30.568;2024-02-16T08:00:43;102249.00;;;-1.60
73937;BMP180;59249;59.736;30.568;2024-02-16T08:03:19;102257.00;;;-1.60
73937;BMP180;59249;59.736;30.568;2024-02-16T08:06:00;102254.00;;;-1.80
73937;BMP180;59249;59.736;30.568;2024-02-16T08:08:31;102262.00;;;-1.70
73937;BMP180;59249;59.736;30.568;2024-02-16T08:11:02;102256.00;;;-1.80
73937;BMP180;59249;59.736;30.568;2024-02-16T08:13:32;102251.00;;;-1.90
73937;BMP180;59249;59.736;30.568;2024-02-16T08:16:03;102254.00;;;-1.90
73937;BMP180;59249;59.736;30.568;2024-02-16T08:18:43;102251.00;;;-1.90
73937;BMP180;59249;59.736;30.568;2024-02-16T08:21:12;102250.00;;;-1.90
73937;BMP180;59249;59.736;30.568;2024-02-16T08:23:42;102252.00;;;-1.80
73937;BMP180;59249;59.736;30.568;2024-02-16T08:26:11;102258.00;;;-1.80
73937;BMP180;59249;59.736;30.568;2024-02-16T08:28:43;102246.00;;;-1.80
73937;BMP180;59249;59.736;30.568;2024-02-16T08:31:16;102257.00;;;-1.80
73937;BMP180;59249;59.736;30.568;2024-02-16T08:33:48;102258.00;;;-1.70
73937;BMP180;59249;59.736;30.568;2024-02-16T08:36:18;102244.00;;;-1.70
73937;BMP180;59249;59.736;30.568;2024-02-16T08:38:49;102252.00;;;-1.70
73937;BMP180;59249;59.736;30.568;2024-02-16T08:41:19;102248.00;;;-1.70
73937;BMP180;59249;59.736;30.568;2024-02-16T08:43:54;102252.00;;;-1.70
73937;BMP180;59249;59.736;30.568;2024-02-16T08:46:29;102260.00;;;-1.60
73937;BMP180;59249;59.736;30.568;2024-02-16T08:49:15;102256.00;;;-1.60
73937;BMP180;59249;59.736;30.568;2024-02-16T08:51:45;102254.00;;;-1.60
73937;BMP180;59249;59.736;30.568;2024-02-16T08:54:18;102250.00;;;-1.70
73937;BMP180;59249;59.736;30.568;2024-02-16T08:56:47;102245.00;;;-1.70
73937;BMP180;59249;59.736;30.568;2024-02-16T08:59:16;102250.00;;;-1.60
73937;BMP180;59249;59.736;30.568;2024-02-16T09:01:46;102244.00;;;-1.70
73937;BMP180;59249;59.736;30.568;2024-02-16T09:04:41;102241.00;;;-1.70
73937;BMP180;59249;59.736;30.568;2024-02-16T09:07:10;102244.00;;;-1.60
73937;BMP180;59249;59.736;30.568;2024-02-16T09:09:45;102240.00;;;-1.60
73937;BMP180;59249;59.736;30.568;2024-02-16T09:12:14;102237.00;;;-1.60
73937;BMP180;59249;59.736;30.568;2024-02-16T09:14:52;102238.00;;;-1.60
73937;BMP180;59249;59.736;30.568;2024-02-16T09:17:21;102236.00;;;-1.50
73937;BMP180;59249;59.736;30.568;2024-02-16T09:19:52;102226.00;;;-1.60
73937;BMP180;59249;59.736;30.568;2024-02-16T09:22:23;102228.00;;;-1.60
73937;BMP180;59249;59.736;30.568;2024-02-16T09:24:59;102228.00;;;-1.50
73937;BMP180;59249;59.736;30.568;2024-02-16T09:27:29;102221.00;;;-1.50
73937;BMP180;59249;59.736;30.568;2024-02-16T09:30:00;102217.00;;;-1.40
73937;BMP180;59249;59.736;30.568;2024-02-16T09:32:32;102220.00;;;-1.50
73937;BMP180;59249;59.736;30.568;2024-02-16T09:35:05;102216.00;;;-1.50
73937;BMP180;59249;59.736;30.568;2024-02-16T09:37:35;102217.00;;;-1.70
73937;BMP180;59249;59.736;30.568;2024-02-16T09:40:08;102215.00;;;-1.50
73937;BMP180;59249;59.736;30.568;2024-02-16T09:42:48;102217.00;;;-1.50
73937;BMP180;59249;59.736;30.568;2024-02-16T09:45:19;102216.00;;;-1.50
73937;BMP180;59249;59.736;30.568;2024-02-16T09:47:52;102215.00;;;-1.40
73937;BMP180;59249;59.736;30.568;2024-02-16T09:50:34;102218.00;;;-1.40
73937;BMP180;59249;59.736;30.568;2024-02-16T09:53:04;102214.00;;;-1.30
73937;BMP180;59249;59.736;30.568;2024-02-16T09:55:35;102221.00;;;-1.30
73937;BMP180;59249;59.736;30.568;2024-02-16T09:58:14;102224.00;;;-1.30
73937;BMP180;59249;59.736;30.568;2024-02-16T10:00:50;102220.00;;;-1.20
73937;BMP180;59249;59.736;30.568;2024-02-16T10:03:23;102224.00;;;-1.20
73937;BMP180;59249;59.736;30.568;2024-02-16T10:06:08;102225.00;;;-1.20
73937;BMP180;59249;59.736;30.568;2024-02-16T10:08:47;102220.00;;;-1.00
73937;BMP180;59249;59.736;30.568;2024-02-16T10:11:19;102214.00;;;-1.10
73937;BMP180;59249;59.736;30.568;2024-02-16T10:13:59;102206.00;;;-1.10
73937;BMP180;59249;59.736;30.568;2024-02-16T10:16:31;102202.00;;;-1.00
73937;BMP180;59249;59.736;30.568;2024-02-16T10:19:09;102203.00;;;-1.00
73937;BMP180;59249;59.736;30.568;2024-02-16T10:21:45;102204.00;;;-0.90
73937;BMP180;59249;59.736;30.568;2024-02-16T10:24:22;102205.00;;;-0.80
73937;BMP180;59249;59.736;30.568;2024-02-16T10:26:54;102209.00;;;-0.80
73937;BMP180;59249;59.736;30.568;2024-02-16T10:29:27;102203.00;;;-0.70
73937;BMP180;59249;59.736;30.568;2024-02-16T10:31:59;102198.00;;;-0.70
73937;BMP180;59249;59.736;30.568;2024-02-16T10:34:29;102190.00;;;-0.80
73937;BMP180;59249;59.736;30.568;2024-02-16T10:37:05;102193.00;;;-0.70
73937;BMP180;59249;59.736;30.568;2024-02-16T10:39:36;102190.00;;;-0.60
73937;BMP180;59249;59.736;30.568;2024-02-16T10:42:13;102184.00;;;-0.70
73937;BMP180;59249;59.736;30.568;2024-02-16T10:44:46;102175.00;;;-0.70
73937;BMP180;59249;59.736;30.568;2024-02-16T10:47:22;102176.00;;;-0.60
73937;BMP180;59249;59.736;30.568;2024-02-16T10:49:54;102171.00;;;-0.50
73937;BMP180;59249;59.736;30.568;2024-02-16T10:52:26;102167.00;;;-0.50
73937;BMP180;59249;59.736;30.568;2024-02-16T10:54:59;102161.00;;;-0.50
73937;BMP180;59249;59.736;30.568;2024-02-16T10:57:36;102159.00;;;-0.50
73937;BMP180;59249;59.736;30.568;2024-02-16T11:00:08;102162.00;;;-0.60
73937;BMP180;59249;59.736;30.568;2024-02-16T11:02:54;102150.00;;;-0.40
73937;BMP180;59249;59.736;30.568;2024-02-16T11:05:33;102148.00;;;-0.30
73937;BMP180;59249;59.736;30.568;2024-02-16T11:08:14;102146.00;;;-0.30
73937;BMP180;59249;59.736;30.568;2024-02-16T11:10:55;102145.00;;;-0.40
73937;BMP180;59249;59.736;30.568;2024-02-16T11:13:26;102148.00;;;-0.30
73937;BMP180;59249;59.736;30.568;2024-02-16T11:15:57;102125.00;;;-0.20
73937;BMP180;59249;59.736;30.568;2024-02-16T11:18:29;102115.00;;;-0.20
73937;BMP180;59249;59.736;30.568;2024-02-16T11:21:01;102113.00;;;-0.20
73937;BMP180;59249;59.736;30.568;2024-02-16T11:23:35;102107.00;;;0.00
73937;BMP180;59249;59.736;30.568;2024-02-16T11:26:06;102111.00;;;0.10
73937;BMP180;59249;59.736;30.568;2024-02-16T11:28:40;102107.00;;;0.10
73937;BMP180;59249;59.736;30.568;2024-02-16T11:31:11;102108.00;;;0.20
73937;BMP180;59249;59.736;30.568;2024-02-16T11:33:44;102106.00;;;0.20
73937;BMP180;59249;59.736;30.568;2024-02-16T11:36:14;102100.00;;;0.10
73937;BMP180;59249;59.736;30.568;2024-02-16T11:38:49;102101.00;;;0.20
73937;BMP180;59249;59.736;30.568;2024-02-16T11:41:20;102098.00;;;0.20
73937;BMP180;59249;59.736;30.568;2024-02-16T11:43:49;102096.00;;;0.30
73937;BMP180;59249;59.736;30.568;2024-02-16T11:46:19;102097.00;;;0.40
73937;BMP180;59249;59.736;30.568;2024-02-16T11:48:49;102091.00;;;0.30
73937;BMP180;59249;59.736;30.568;2024-02-16T11:51:22;102074.00;;;0.30
73937;BMP180;59249;59.736;30.568;2024-02-16T11:54:00;102079.00;;;0.30
73937;BMP180;59249;59.736;30.568;2024-02-16T11:56:29;102076.00;;;0.40
73937;BMP180;59249;59.736;30.568;2024-02-16T11:59:05;102064.00;;;0.40
73937;BMP180;59249;59.736;30.568;2024-02-16T12:01:36;102063.00;;;0.40
73937;BMP180;59249;59.736;30.568;2024-02-16T12:04:21;102065.00;;;0.40
73937;BMP180;59249;59.736;30.568;2024-02-16T12:06:55;102066.00;;;0.40
73937;BMP180;59249;59.736;30.568;2024-02-16T12:09:32;102058.00;;;0.50
73937;BMP180;59249;59.736;30.568;2024-02-16T12:12:05;102049.00;;;0.50
73937;BMP180;59249;59.736;30.568;2024-02-16T12:14:35;102049.00;;;0.50
73937;BMP180;59249;59.736;30.568;2024-02-16T12:17:07;102045.00;;;0.60
73937;BMP180;59249;59.736;30.568;2024-02-16T12:19:36;102037.00;;;0.60
73937;BMP180;59249;59.736;30.568;2024-02-16T12:22:05;102043.00;;;0.60
73937;BMP180;59249;59.736;30.568;2024-02-16T12:24:35;102045.00;;;0.60
73937;BMP180;59249;59.736;30.568;2024-02-16T12:27:06;102037.00;;;0.70
73937;BMP180;59249;59.736;30.568;2024-02-16T12:29:35;102041.00;;;0.70
73937;BMP180;59249;59.736;30.568;2024-02-16T12:32:05;102035.00;;;0.80
73937;BMP180;59249;59.736;30.568;2024-02-16T12:34:36;102026.00;;;0.80
73937;BMP180;59249;59.736;30.568;2024-02-16T12:37:06;102027.00;;;0.80
73937;BMP180;59249;59.736;30.568;2024-02-16T12:39:37;102024.00;;;0.80
73937;BMP180;59249;59.736;30.568;2024-02-16T12:42:07;102017.00;;;0.70
73937;BMP180;59249;59.736;30.568;2024-02-16T12:44:39;102020.00;;;0.70
73937;BMP180;59249;59.736;30.568;2024-02-16T12:47:11;102002.00;;;0.80
73937;BMP180;59249;59.736;30.568;2024-02-16T12:49:42;102008.00;;;0.80
73937;BMP180;59249;59.736;30.568;2024-02-16T12:52:20;101998.00;;;0.70
73937;BMP180;59249;59.736;30.568;2024-02-16T12:54:53;102006.00;;;0.70
73937;BMP180;59249;59.736;30.568;2024-02-16T12:57:22;101998.00;;;0.70
73937;BMP180;59249;59.736;30.568;2024-02-16T12:59:51;101988.00;;;0.60
73937;BMP180;59249;59.736;30.568;2024-02-16T13:02:21;101990.00;;;0.60
73937;BMP180;59249;59.736;30.568;2024-02-16T13:04:50;101980.00;;;0.60
73937;BMP180;59249;59.736;30.568;2024-02-16T13:07:21;101980.00;;;0.60
73937;BMP180;59249;59.736;30.568;2024-02-16T13:09:55;101974.00;;;0.50
73937;BMP180;59249;59.736;30.568;2024-02-16T13:12:25;101969.00;;;0.60
73937;BMP180;59249;59.736;30.568;2024-02-16T13:14:56;101965.00;;;0.50
73937;BMP180;59249;59.736;30.568;2024-02-16T13:17:44;101963.00;;;0.40
73937;BMP180;59249;59.736;30.568;2024-02-16T13:20:14;101959.00;;;0.40
73937;BMP180;59249;59.736;30.568;2024-02-16T13:22:43;101939.00;;;0.40
73937;BMP180;59249;59.736;30.568;2024-02-16T13:25:15;101943.00;;;0.40
73937;BMP180;59249;59.736;30.568;2024-02-16T13:27:44;101943.00;;;0.40
73937;BMP180;59249;59.736;30.568;2024-02-16T13:30:13;101931.00;;;0.30
73937;BMP180;59249;59.736;30.568;2024-02-16T13:32:43;101934.00;;;0.30
73937;BMP180;59249;59.736;30.568;2024-02-16T13:35:14;101932.00;;;0.30
73937;BMP180;59249;59.736;30.568;2024-02-16T13:37:47;101928.00;;;0.30
73937;BMP180;59249;59.736;30.568;2024-02-16T13:40:18;101926.00;;;0.30
73937;BMP180;59249;59.736;30.568;2024-02-16T13:42:49;101927.00;;;0.20
73937;BMP180;59249;59.736;30.568;2024-02-16T13:45:18;101926.00;;;0.20
73937;BMP180;59249;59.736;30.568;2024-02-16T13:47:48;101915.00;;;0.10
73937;BMP180;59249;59.736;30.568;2024-02-16T13:50:17;101913.00;;;0.10
73937;BMP180;59249;59.736;30.568;2024-02-16T13:52:46;101908.00;;;0.00
73937;BMP180;59249;59.736;30.568;2024-02-16T13:55:18;101903.00;;;0.00
73937;BMP180;59249;59.736;30.568;2024-02-16T13:57:47;101901.00;;;0.00
73937;BMP180;59249;59.736;30.568;2024-02-16T14:00:17;101902.00;;;0.00
73937;BMP180;59249;59.736;30.568;2024-02-16T14:02:47;101906.00;;;0.00
73937;BMP180;59249;59.736;30.568;2024-02-16T14:05:16;101901.00;;;-0.20
73937;BMP180;59249;59.736;30.568;2024-02-16T14:07:46;101897.00;;;-0.20
73937;BMP180;59249;59.736;30.568;2024-02-16T14:10:29;101884.00;;;-0.30
73937;BMP180;59249;59.736;30.568;2024-02-16T14:12:59;101884.00;;;-0.30